Time;durP1;ratioP1;P1;durP2;ratioP2;P2;SDS_P1;SDS_P2;PMS_P1;PMS_P2;Temp;Humidity;BMP_temperature;BMP_pressure;BME280_temperature;BME280_humidity;BME280_pressure;Samples;Min_cycle;Max_cycle;Signal;HPM_P1;HPM_P2
2022/04/03 00:01:12;;;;;;;9.95;4.30;;;;;;;-1.88;100.00;101118.91;5964646;29;20054;-86
2022/04/03 00:04:14;;;;;;;9.00;3.95;;;;;;;-1.92;100.00;101119.00;5987427;29;20046;-86
2022/04/03 00:07:16;;;;;;;7.72;3.80;;;;;;;-2.01;100.00;101118.31;5970049;29;20053;-86
2022/04/03 00:10:18;;;;;;;6.13;3.30;;;;;;;-2.02;100.00;101119.16;5970183;29;20077;-86
2022/04/03 00:13:20;;;;;;;4.32;2.90;;;;;;;-2.06;100.00;101115.00;5970848;29;20055;-86
2022/04/03 00:16:22;;;;;;;8.40;4.38;;;;;;;-1.97;100.00;101116.53;5970639;29;20607;-86
2022/04/03 00:19:24;;;;;;;9.27;3.97;;;;;;;-2.02;100.00;101118.31;5966286;29;20081;-86
2022/04/03 00:22:25;;;;;;;9.18;4.40;;;;;;;-1.99;100.00;101120.78;5962607;29;20046;-86
2022/04/03 00:25:28;;;;;;;8.80;4.40;;;;;;;-2.06;100.00;101127.69;5973736;29;20360;-86
2022/04/03 00:28:30;;;;;;;9.15;4.13;;;;;;;-2.13;100.00;101121.03;5974070;29;20137;-86
2022/04/03 00:31:34;;;;;;;6.25;3.90;;;;;;;-2.19;100.00;101116.94;5975990;29;20053;-86
2022/04/03 00:34:35;;;;;;;4.65;3.22;;;;;;;-2.18;100.00;101126.19;5973738;29;20050;-86
2022/04/03 00:37:38;;;;;;;4.65;2.53;;;;;;;-2.18;100.00;101123.66;5982913;29;20050;-86
2022/04/03 00:40:39;;;;;;;6.07;2.97;;;;;;;-2.21;100.00;101123.72;5972642;29;20603;-86
2022/04/03 00:43:43;;;;;;;8.07;3.22;;;;;;;-2.12;100.00;101121.88;5976586;29;20114;-86
2022/04/03 00:46:47;;;;;;;7.43;3.70;;;;;;;-2.17;100.00;101122.78;5971813;29;20142;-86
2022/04/03 00:49:48;;;;;;;8.18;3.60;;;;;;;-2.17;100.00;101124.50;5971920;29;20527;-86
2022/04/03 00:52:50;;;;;;;13.02;4.57;;;;;;;-2.19;100.00;101119.47;5984976;29;20055;-86
2022/04/03 00:55:53;;;;;;;8.35;3.55;;;;;;;-2.20;100.00;101116.94;5973118;29;20777;-86
2022/04/03 00:58:56;;;;;;;6.15;3.05;;;;;;;-2.22;100.00;101116.13;5977312;29;20061;-86
2022/04/03 01:01:58;;;;;;;5.20;3.08;;;;;;;-2.24;100.00;101116.13;5969184;29;20511;-86
2022/04/03 01:05:01;;;;;;;5.13;2.75;;;;;;;-2.22;100.00;101108.50;5972072;29;20046;-86
2022/04/03 01:08:03;;;;;;;11.63;4.78;;;;;;;-2.17;100.00;101111.81;5971508;29;20046;-86
2022/04/03 01:11:05;;;;;;;6.72;3.90;;;;;;;-2.10;100.00;101117.63;5967989;29;20053;-86
2022/04/03 01:14:06;;;;;;;10.43;4.80;;;;;;;-2.09;100.00;101116.75;5970991;29;20055;-86
2022/04/03 01:17:11;;;;;;;10.88;4.13;;;;;;;-2.08;100.00;101113.38;5969905;29;20507;-86
2022/04/03 01:20:12;;;;;;;4.30;2.67;;;;;;;-1.99;100.00;101115.72;5971956;29;20092;-86
2022/04/03 01:23:15;;;;;;;3.95;2.60;;;;;;;-2.07;100.00;101120.09;5976337;29;20106;-86
2022/04/03 01:26:17;;;;;;;11.07;4.00;;;;;;;-2.09;100.00;101111.69;5968764;29;20145;-86
2022/04/03 01:29:19;;;;;;;6.65;2.85;;;;;;;-2.17;100.00;101109.28;5971495;29;20042;-86
2022/04/03 01:32:21;;;;;;;5.47;2.83;;;;;;;-2.20;100.00;101106.78;5973547;29;20125;-86
2022/04/03 01:35:23;;;;;;;7.97;2.92;;;;;;;-2.22;100.00;101113.59;5965249;29;20822;-86
2022/04/03 01:38:25;;;;;;;5.28;2.53;;;;;;;-2.33;100.00;101103.63;5967108;29;20189;-86
2022/04/03 01:41:27;;;;;;;4.18;2.90;;;;;;;-2.37;100.00;101102.00;5968851;29;20058;-86
2022/04/03 01:44:30;;;;;;;4.45;2.47;;;;;;;-2.46;100.00;101108.06;5975035;29;20062;-86
2022/04/03 01:47:32;;;;;;;5.07;2.47;;;;;;;-2.46;100.00;101107.19;5964692;29;20054;-86
2022/04/03 01:50:34;;;;;;;4.82;2.35;;;;;;;-2.48;100.00;101109.78;5972277;29;20058;-86
2022/04/03 01:53:36;;;;;;;4.95;2.75;;;;;;;-2.46;100.00;101108.06;5975106;29;20101;-86
2022/04/03 01:56:39;;;;;;;4.50;2.38;;;;;;;-2.45;100.00;101102.13;5973487;29;20039;-86
2022/04/03 01:59:41;;;;;;;5.40;3.00;;;;;;;-2.33;100.00;101107.88;5967401;29;20058;-86
2022/04/03 02:02:44;;;;;;;4.40;2.88;;;;;;;-2.46;100.00;101100.47;5975651;29;20050;-86
2022/04/03 02:05:46;;;;;;;4.70;2.45;;;;;;;-2.47;100.00;101101.31;5967940;29;20046;-86
2022/04/03 02:08:47;;;;;;;4.20;2.40;;;;;;;-2.47;100.00;101108.91;5988153;29;20058;-86
2022/04/03 02:11:49;;;;;;;4.80;2.35;;;;;;;-2.51;100.00;101094.63;5974525;29;20615;-86
2022/04/03 02:14:51;;;;;;;2.97;2.17;;;;;;;-2.54;100.00;101097.19;5987899;29;20175;-85
2022/04/03 02:17:53;;;;;;;2.58;2.25;;;;;;;-2.52;100.00;101095.47;5973197;29;20359;-86
2022/04/03 02:20:55;;;;;;;5.65;2.45;;;;;;;-2.60;100.00;101097.28;5965192;29;20731;-86
2022/04/03 02:23:57;;;;;;;4.20;2.50;;;;;;;-2.61;100.00;101088.00;5973868;29;20139;-86
2022/04/03 02:26:59;;;;;;;5.53;2.30;;;;;;;-2.62;100.00;101091.41;5972166;29;20053;-86
2022/04/03 02:30:00;;;;;;;3.40;2.00;;;;;;;-2.62;100.00;101086.34;5969339;29;20143;-86
2022/04/03 02:33:02;;;;;;;3.17;2.50;;;;;;;-2.57;100.00;101091.34;5972311;29;20057;-86
2022/04/03 02:36:05;;;;;;;2.97;2.10;;;;;;;-2.64;100.00;101088.06;5968363;29;20162;-86
2022/04/03 02:39:07;;;;;;;4.45;2.45;;;;;;;-2.68;100.00;101088.97;5974887;29;20046;-86
2022/04/03 02:42:09;;;;;;;3.72;2.42;;;;;;;-2.68;100.00;101088.97;5967370;29;20058;-86
2022/04/03 02:45:12;;;;;;;3.05;2.15;;;;;;;-2.68;100.00;101086.44;5968484;29;20102;-86
2022/04/03 02:48:13;;;;;;;4.35;2.47;;;;;;;-2.65;100.00;101092.28;5970708;29;20116;-86
2022/04/03 02:51:16;;;;;;;2.78;2.20;;;;;;;-2.68;100.00;101082.22;5967256;29;20046;-86
2022/04/03 02:54:18;;;;;;;3.08;2.10;;;;;;;-2.69;100.00;101094.91;5975657;29;20497;-86
2022/04/03 02:57:20;;;;;;;3.60;2.45;;;;;;;-2.68;100.00;101096.59;5976369;29;20049;-86
2022/04/03 03:00:22;;;;;;;2.15;1.95;;;;;;;-2.70;100.00;101090.69;5977799;29;20475;-86
2022/04/03 03:03:26;;;;;;;4.57;2.80;;;;;;;-2.65;100.00;101096.53;5975307;29;20125;-86
2022/04/03 03:06:28;;;;;;;5.22;2.60;;;;;;;-2.53;100.00;101086.22;5990207;29;20050;-86
2022/04/03 03:09:31;;;;;;;3.85;2.28;;;;;;;-2.50;100.00;101093.75;5975518;29;20211;-86
2022/04/03 03:12:35;;;;;;;3.78;2.45;;;;;;;-2.44;100.00;101086.03;5978009;29;20046;-86
2022/04/03 03:15:37;;;;;;;4.63;2.70;;;;;;;-2.37;100.00;101091.84;5969470;29;20077;-86
2022/04/03 03:18:39;;;;;;;3.85;2.30;;;;;;;-2.35;100.00;101092.69;5974497;29;20176;-86
2022/04/03 03:21:42;;;;;;;4.40;2.75;;;;;;;-2.30;100.00;101090.91;5971381;29;20508;-86
2022/04/03 03:24:44;;;;;;;3.75;2.42;;;;;;;-2.36;100.00;101093.56;5971003;29;20780;-86
2022/04/03 03:27:46;;;;;;;3.20;2.28;;;;;;;-2.39;100.00;101085.97;5968095;29;20046;-86
2022/04/03 03:30:48;;;;;;;4.65;2.83;;;;;;;-2.33;100.00;101074.91;5986275;29;20890;-86
2022/04/03 03:33:50;;;;;;;3.65;2.60;;;;;;;-2.34;100.00;101081.66;5973285;29;20054;-86
2022/04/03 03:36:52;;;;;;;4.40;2.42;;;;;;;-2.30;100.00;101080.75;5967954;29;20642;-86
2022/04/03 03:39:54;;;;;;;3.70;2.28;;;;;;;-2.29;100.00;101079.06;5965058;29;20133;-86
2022/04/03 03:42:56;;;;;;;4.10;2.03;;;;;;;-2.22;100.00;101068.78;5972833;29;20432;-86
2022/04/03 03:45:57;;;;;;;4.18;2.20;;;;;;;-2.14;100.00;101073.72;5977103;29;20050;-86
2022/04/03 03:48:59;;;;;;;3.70;2.05;;;;;;;-2.12;100.00;101077.06;5974738;29;20079;-86
2022/04/03 03:52:02;;;;;;;4.63;2.25;;;;;;;-2.08;100.00;101081.22;5974024;29;20061;-86
2022/04/03 03:55:04;;;;;;;3.92;2.42;;;;;;;-2.02;100.00;101078.56;5974990;29;20093;-86
2022/04/03 03:58:06;;;;;;;2.88;2.05;;;;;;;-1.97;100.00;101079.31;5979473;29;20047;-86
2022/04/03 04:01:08;;;;;;;3.05;1.95;;;;;;;-1.92;100.00;101091.09;5983637;29;20054;-86
2022/04/03 04:04:10;;;;;;;2.80;2.10;;;;;;;-1.89;100.00;101078.34;5978949;29;20050;-86
2022/04/03 04:07:13;;;;;;;3.63;2.20;;;;;;;-1.79;100.00;101077.31;5977979;29;20138;-86
2022/04/03 04:10:16;;;;;;;6.18;2.05;;;;;;;-1.78;100.00;101082.38;5979094;29;20038;-85
2022/04/03 04:13:18;;;;;;;4.47;2.13;;;;;;;-1.75;100.00;101081.47;5979720;29;20039;-85
2022/04/03 04:16:20;;;;;;;2.22;2.00;;;;;;;-1.74;100.00;101083.13;5985001;29;20386;-86
2022/04/03 04:19:22;;;;;;;2.75;1.83;;;;;;;-1.70;100.00;101079.66;5973379;29;20038;-86
2022/04/03 04:22:24;;;;;;;5.32;1.75;;;;;;;-1.69;100.00;101081.38;5979163;29;20480;-86
2022/04/03 04:25:26;;;;;;;5.25;2.60;;;;;;;-1.66;100.00;101086.38;5974679;29;20050;-86
2022/04/03 04:28:28;;;;;;;4.90;2.42;;;;;;;-1.72;100.00;101089.00;5979553;29;20054;-86
2022/04/03 04:31:31;;;;;;;3.90;2.45;;;;;;;-1.63;100.00;101086.31;5978195;29;20046;-86
2022/04/03 04:34:33;;;;;;;4.82;2.40;;;;;;;-1.58;100.00;101093.84;5979047;29;20042;-86
2022/04/03 04:37:35;;;;;;;4.65;3.03;;;;;;;-1.47;100.00;101086.81;5973479;29;20051;-86
2022/04/03 04:40:38;;;;;;;3.75;2.42;;;;;;;-1.49;100.00;101095.34;5981277;29;20084;-86
2022/04/03 04:43:40;;;;;;;4.28;2.47;;;;;;;-1.55;100.00;101099.66;5979437;29;20050;-86
2022/04/03 04:46:42;;;;;;;7.63;2.72;;;;;;;-1.48;100.00;101104.66;5974847;29;20043;-86
2022/04/03 04:49:45;;;;;;;4.35;2.33;;;;;;;-1.39;100.00;101086.66;5979384;29;20049;-86
2022/04/03 04:52:47;;;;;;;6.88;2.70;;;;;;;-1.41;100.00;101094.34;5979991;29;20054;-86
2022/04/03 04:55:48;;;;;;;5.00;3.35;;;;;;;-1.38;100.00;101088.34;5972865;29;20050;-85
2022/04/03 04:58:50;;;;;;;3.53;2.80;;;;;;;-1.42;100.00;101090.09;5988715;29;20053;-85
2022/04/03 05:01:56;;;;;;;3.75;2.97;;;;;;;-1.30;100.00;101094.09;5978128;29;20058;-86
2022/04/03 05:04:58;;;;;;;5.28;3.53;;;;;;;-1.36;100.00;101094.25;5985573;29;20874;-86
2022/04/03 05:08:01;;;;;;;4.10;3.33;;;;;;;-1.36;100.00;101094.25;5983436;29;20171;-85
2022/04/03 05:11:04;;;;;;;5.00;3.40;;;;;;;-1.47;100.00;101086.81;5977793;29;20051;-85
2022/04/03 05:14:07;;;;;;;5.95;3.50;;;;;;;-1.48;100.00;101082.63;5994918;29;20062;-85
2022/04/03 05:17:09;;;;;;;4.80;4.18;;;;;;;-1.52;100.00;101086.94;5966271;29;20353;-85
2022/04/03 05:20:13;;;;;;;6.63;4.50;;;;;;;-1.58;100.00;101089.59;5978154;29;20110;-85
2022/04/03 05:23:15;;;;;;;7.65;4.57;;;;;;;-1.58;100.00;101089.59;5981581;29;20557;-85
2022/04/03 05:26:17;;;;;;;6.68;4.50;;;;;;;-1.30;100.00;101084.78;5978843;29;20046;-85
2022/04/03 05:29:19;;;;;;;5.35;4.05;;;;;;;-1.36;100.00;101091.72;5978930;29;20089;-85
2022/04/03 05:32:27;;;;;;;6.75;4.65;;;;;;;-1.42;100.00;101095.19;5990584;29;20417;-85
2022/04/03 05:35:29;;;;;;;8.20;5.05;;;;;;;-1.44;100.00;101085.94;5979517;29;20053;-85
2022/04/03 05:38:31;;;;;;;6.72;5.20;;;;;;;-1.60;100.00;101098.09;5967937;29;20042;-85
2022/04/03 05:41:34;;;;;;;6.43;4.95;;;;;;;-1.59;100.00;101087.06;5979383;29;20064;-85
2022/04/03 05:44:36;;;;;;;6.43;4.85;;;;;;;-1.75;100.00;101096.69;5992580;29;20511;-85
2022/04/03 05:47:38;;;;;;;6.68;5.35;;;;;;;-1.81;100.00;101096.81;5978756;29;20079;-85
2022/04/03 05:50:45;;;;;;;11.13;5.63;;;;;;;-1.77;100.00;101089.09;5973224;29;20039;-85
2022/04/03 05:53:47;;;;;;;6.90;4.97;;;;;;;-1.65;100.00;101098.19;5976324;29;20161;-85
2022/04/03 05:56:49;;;;;;;7.50;5.57;;;;;;;-1.78;100.00;101102.66;5964183;29;20488;-85
2022/04/03 05:59:51;;;;;;;8.13;5.43;;;;;;;-1.68;100.00;101108.41;5998909;29;20051;-86
2022/04/03 06:02:53;;;;;;;7.45;4.97;;;;;;;-1.67;100.00;101110.06;5976727;29;20045;-86
2022/04/03 06:05:55;;;;;;;11.02;5.43;;;;;;;-1.75;100.00;101111.91;5967494;29;20053;-86
2022/04/03 06:08:57;;;;;;;6.97;4.88;;;;;;;-1.69;100.00;101109.28;5975095;29;20046;-86
2022/04/03 06:11:59;;;;;;;7.93;5.18;;;;;;;-1.65;100.00;101110.03;5972185;29;20412;-86
2022/04/03 06:15:02;;;;;;;6.13;5.35;;;;;;;-1.65;100.00;101112.59;5970144;29;20417;-86
2022/04/03 06:18:07;;;;;;;7.18;5.28;;;;;;;-1.62;100.00;101115.88;5978770;29;20126;-86
2022/04/03 06:21:09;;;;;;;6.88;5.32;;;;;;;-1.58;100.00;101114.97;5977362;29;20054;-85
2022/04/03 06:24:10;;;;;;;5.35;4.72;;;;;;;-1.57;100.00;101111.56;5975050;29;20379;-85
2022/04/03 06:27:13;;;;;;;6.45;4.53;;;;;;;-1.51;100.00;101110.63;5991165;29;20041;-85
2022/04/03 06:30:15;;;;;;;6.90;4.70;;;;;;;-1.53;100.00;101112.34;5990060;29;20046;-85
2022/04/03 06:33:17;;;;;;;7.10;4.85;;;;;;;-1.44;100.00;101121.47;5976500;29;20167;-86
2022/04/03 06:36:19;;;;;;;11.25;5.32;;;;;;;-1.36;100.00;101119.63;5970576;29;20046;-85
2022/04/03 06:39:21;;;;;;;7.15;4.88;;;;;;;-1.21;100.00;101111.69;5973572;29;20050;-86
2022/04/03 06:42:24;;;;;;;6.88;4.60;;;;;;;-0.99;100.00;101119.72;5977123;29;20126;-86
2022/04/03 06:45:26;;;;;;;7.40;4.40;;;;;;;-0.68;100.00;101119.84;5957822;29;20069;-86
2022/04/03 06:48:29;;;;;;;5.35;4.15;;;;;;;-0.29;100.00;101122.34;5975493;29;20151;-86
2022/04/03 06:51:30;;;;;;;7.32;4.10;;;;;;;0.03;100.00;101118.16;5970166;29;20057;-86
2022/04/03 06:54:32;;;;;;;6.03;3.75;;;;;;;0.21;100.00;101124.47;5971155;29;20262;-86
2022/04/03 06:57:34;;;;;;;6.72;4.25;;;;;;;0.63;100.00;101116.53;5973941;29;20053;-86
2022/04/03 07:00:37;;;;;;;6.20;4.55;;;;;;;0.76;100.00;101125.50;5987030;29;20050;-86
2022/04/03 07:03:40;;;;;;;6.45;4.10;;;;;;;0.71;100.00;101118.88;5975598;29;20052;-86
2022/04/03 07:06:41;;;;;;;4.97;4.28;;;;;;;0.69;100.00;101124.00;5974522;29;20050;-86
2022/04/03 07:09:43;;;;;;;7.93;3.95;;;;;;;0.52;100.00;101124.50;5974662;29;20252;-86
2022/04/03 07:12:45;;;;;;;5.13;3.80;;;;;;;0.50;100.00;101121.16;5973839;29;20192;-86
2022/04/03 07:15:49;;;;;;;5.00;3.78;;;;;;;0.57;100.00;101121.78;5964764;29;20053;-85
2022/04/03 07:18:50;;;;;;;6.55;4.13;;;;;;;0.60;100.00;101124.28;5963982;29;20050;-85
2022/04/03 07:21:52;;;;;;;5.32;3.25;;;;;;;0.73;100.00;101123.03;5964944;29;20057;-85
2022/04/03 07:24:54;;;;;;;6.13;3.13;;;;;;;0.83;100.00;101121.06;5967021;29;20382;-85
2022/04/03 07:27:56;;;;;;;3.33;2.38;;;;;;;0.88;100.00;101115.84;5962378;29;20351;-85
2022/04/03 07:30:58;;;;;;;4.40;2.17;;;;;;;1.11;100.00;101120.25;5970498;29;20054;-86
2022/04/03 07:34:00;;;;;;;5.40;2.63;;;;;;;1.34;100.00;101115.28;5982171;29;20572;-85
2022/04/03 07:37:02;;;;;;;4.82;2.55;;;;;;;1.28;100.00;101121.41;5971347;29;20130;-85
2022/04/03 07:40:06;;;;;;;2.75;2.15;;;;;;;1.24;100.00;101124.94;5970804;29;20172;-85
2022/04/03 07:43:08;;;;;;;7.05;2.33;;;;;;;1.47;100.00;101121.69;5970544;29;20098;-85
2022/04/03 07:46:15;;;;;;;5.18;2.10;;;;;;;1.54;100.00;101124.03;5967252;29;20102;-85
2022/04/03 07:49:17;;;;;;;3.75;2.00;;;;;;;1.59;99.14;101127.25;5967515;29;20038;-85
2022/04/03 07:52:19;;;;;;;2.80;1.80;;;;;;;1.69;99.82;101126.06;5966527;29;20046;-84
2022/04/03 07:55:21;;;;;;;3.60;2.05;;;;;;;1.78;98.85;101117.31;5966171;29;20043;-85
2022/04/03 07:58:22;;;;;;;4.90;2.15;;;;;;;2.05;94.52;101130.88;5968801;29;20519;-85
2022/04/03 08:01:24;;;;;;;5.78;2.35;;;;;;;2.26;93.57;101124.19;5962476;29;20054;-85
2022/04/03 08:04:26;;;;;;;3.45;2.10;;;;;;;2.59;92.01;101127.28;5965753;29;20186;-85
2022/04/03 08:07:48;;;;;;;3.15;2.05;;;;;;;2.76;90.60;101136.91;5962831;29;20600;-85
2022/04/03 08:10:50;;;;;;;4.60;1.80;;;;;;;2.64;89.49;101138.16;5966143;29;20047;-85
2022/04/03 08:13:51;;;;;;;4.95;2.55;;;;;;;2.34;90.24;101130.69;5965943;29;20094;-85
2022/04/03 08:16:54;;;;;;;3.22;2.00;;;;;;;2.13;92.34;101123.78;5961073;29;20051;-85
2022/04/03 08:19:56;;;;;;;5.15;2.10;;;;;;;2.14;92.98;101130.56;5965049;29;20039;-85
2022/04/03 08:23:00;;;;;;;5.82;2.40;;;;;;;2.25;93.14;101136.13;5963733;29;20050;-84
2022/04/03 08:26:02;;;;;;;4.25;2.17;;;;;;;2.46;94.06;101139.66;5966865;29;20103;-84
2022/04/03 08:29:03;;;;;;;4.70;2.30;;;;;;;2.59;90.53;101132.38;5983544;29;20078;-84
2022/04/03 08:32:06;;;;;;;2.58;1.90;;;;;;;2.72;89.24;101128.50;5967452;29;20920;-84
2022/04/03 08:35:09;;;;;;;3.13;1.90;;;;;;;2.95;89.46;101131.91;5967507;29;20045;-84
2022/04/03 08:38:11;;;;;;;3.45;2.17;;;;;;;3.27;89.37;101134.97;5965101;29;20600;-85
2022/04/03 08:41:13;;;;;;;2.00;1.88;;;;;;;3.36;89.13;101140.56;5984634;29;20050;-85
2022/04/03 08:44:15;;;;;;;5.40;2.20;;;;;;;3.50;87.31;101147.69;5964747;29;20615;-85
2022/04/03 08:47:19;;;;;;;5.53;2.20;;;;;;;3.69;86.20;101132.44;5969100;29;20172;-85
2022/04/03 08:50:26;;;;;;;3.55;2.13;;;;;;;3.79;88.02;101136.28;5958318;29;20062;-85
2022/04/03 08:53:30;;;;;;;5.07;2.40;;;;;;;3.77;87.62;101134.69;5972540;29;20595;-85
2022/04/03 08:56:32;;;;;;;3.97;2.58;;;;;;;3.90;87.13;101130.75;5963878;29;21381;-85
2022/04/03 08:59:37;;;;;;;5.50;2.45;;;;;;;3.94;87.88;101132.28;5987806;29;20429;-85
2022/04/03 09:02:46;;;;;;;3.08;2.53;;;;;;;4.00;88.66;101124.34;5969053;29;20633;-85
2022/04/03 09:05:47;;;;;;;2.55;1.90;;;;;;;3.99;85.80;101121.84;5986362;29;20572;-85
2022/04/03 09:08:55;;;;;;;3.72;1.83;;;;;;;4.05;87.14;101124.97;5970456;29;20460;-86
2022/04/03 09:12:12;;;;;;;2.55;1.70;;;;;;;4.04;84.54;101128.41;5968495;29;20049;-86
2022/04/03 09:15:16;;;;;;;3.00;1.60;;;;;;;4.02;85.47;101130.22;5971639;29;20061;-85
2022/04/03 09:18:18;;;;;;;5.18;2.03;;;;;;;4.00;87.67;101120.94;5972278;29;20650;-86
2022/04/03 09:21:22;;;;;;;2.97;1.60;;;;;;;3.93;90.30;101115.25;5971745;29;20081;-86
2022/04/03 09:24:24;;;;;;;3.00;1.70;;;;;;;3.89;87.79;101118.81;5971706;29;20056;-86
2022/04/03 09:27:26;;;;;;;3.42;1.58;;;;;;;4.07;88.51;101112.09;5969662;29;20062;-86
2022/04/03 09:30:39;;;;;;;3.60;1.80;;;;;;;4.35;87.85;101124.56;5968329;29;20072;-85
2022/04/03 09:33:58;;;;;;;3.50;1.83;;;;;;;4.24;85.02;101119.06;5970137;29;20074;-86
2022/04/03 09:37:05;;;;;;;2.40;1.48;;;;;;;4.17;86.24;101117.66;5971411;29;20049;-86
2022/04/03 09:40:07;;;;;;;4.47;2.03;;;;;;;4.64;85.11;101118.13;5971564;29;20034;-86
2022/04/03 09:43:23;;;;;;;2.67;1.70;;;;;;;5.03;80.96;101109.53;5974297;29;20599;-86
2022/04/03 09:46:29;;;;;;;2.20;1.30;;;;;;;5.11;80.12;101106.63;5974116;29;20058;-86
2022/04/03 09:49:35;;;;;;;2.55;1.63;;;;;;;5.18;80.34;101105.44;5970816;29;20070;-86
2022/04/03 09:52:37;;;;;;;3.78;1.80;;;;;;;5.50;78.86;101101.31;5967999;29;20755;-86
2022/04/03 09:55:41;;;;;;;3.95;1.60;;;;;;;5.68;76.49;101109.03;5966290;29;20046;-86
2022/04/03 09:59:07;;;;;;;4.78;1.52;;;;;;;5.77;77.64;101106.84;5985356;29;20046;-86
2022/04/03 10:02:13;;;;;;;1.58;1.38;;;;;;;5.87;75.25;101091.00;5981559;29;20055;-86
2022/04/03 10:05:16;;;;;;;4.10;1.67;;;;;;;5.89;74.97;101091.72;5971683;29;20092;-86
2022/04/03 10:08:19;;;;;;;2.15;1.33;;;;;;;5.95;70.87;101089.72;5968382;29;20043;-86
2022/04/03 10:11:21;;;;;;;3.42;1.55;;;;;;;5.67;72.80;101090.25;5970855;29;20507;-86
2022/04/03 10:14:24;;;;;;;5.05;1.80;;;;;;;5.50;77.34;101090.22;5973020;29;20043;-86
2022/04/03 10:17:26;;;;;;;3.92;1.67;;;;;;;5.59;76.66;101092.34;5967339;29;20046;-86
2022/04/03 10:20:28;;;;;;;3.83;1.63;;;;;;;5.58;77.65;101086.38;5971745;29;20050;-86
2022/04/03 10:23:31;;;;;;;3.13;1.70;;;;;;;5.46;78.34;101078.44;5965569;29;20831;-86
2022/04/03 10:26:36;;;;;;;4.30;1.60;;;;;;;5.90;75.78;101083.13;5964880;29;20190;-86
2022/04/03 10:29:40;;;;;;;2.53;1.42;;;;;;;5.61;76.98;101087.94;5961357;29;20058;-87
2022/04/03 10:32:56;;;;;;;1.92;1.70;;;;;;;5.29;82.21;101081.81;5970184;29;20046;-87
2022/04/03 10:36:11;;;;;;;2.63;1.65;;;;;;;5.09;84.15;101087.91;5968149;29;20049;-86
2022/04/03 10:39:24;;;;;;;3.40;1.33;;;;;;;4.88;88.18;101090.56;5970680;29;20405;-87
2022/04/03 10:42:26;;;;;;;5.07;1.55;;;;;;;4.84;90.71;101083.06;5967022;29;20054;-87
2022/04/03 10:45:34;;;;;;;2.47;1.52;;;;;;;4.96;90.96;101088.47;5968445;29;20051;-86
2022/04/03 10:48:36;;;;;;;1.92;1.38;;;;;;;5.18;88.84;101087.47;5965127;29;20074;-86
2022/04/03 10:51:38;;;;;;;4.38;1.83;;;;;;;5.31;85.96;101080.84;5966989;29;20092;-86
2022/04/03 10:54:54;;;;;;;2.75;1.45;;;;;;;5.49;84.31;101075.72;5968164;29;20297;-87
2022/04/03 10:58:08;;;;;;;3.58;1.67;;;;;;;5.14;86.05;101067.97;5973453;29;20054;-87
2022/04/03 11:01:22;;;;;;;1.92;1.83;;;;;;;4.97;85.28;101069.63;5969244;29;20054;-86
2022/04/03 11:04:25;;;;;;;2.25;1.10;;;;;;;4.99;83.33;101069.53;5966864;29;20054;-86
2022/04/03 11:07:26;;;;;;;1.75;1.23;;;;;;;5.32;83.62;101074.81;5974558;29;20042;-87
2022/04/03 11:10:55;;;;;;;3.00;1.20;;;;;;;5.89;81.49;101069.44;5972309;29;20050;-86
2022/04/03 11:13:57;;;;;;;1.92;1.30;;;;;;;6.15;81.68;101065.56;5987468;29;20089;-86
2022/04/03 11:17:00;;;;;;;2.85;1.60;;;;;;;6.39;74.50;101055.75;5968395;29;20054;-87
2022/04/03 11:20:02;;;;;;;2.40;1.63;;;;;;;6.43;72.96;101046.13;5970380;29;20420;-87
2022/04/03 11:23:05;;;;;;;3.53;1.92;;;;;;;6.30;79.21;101045.94;5984491;29;20131;-86
2022/04/03 11:26:07;;;;;;;3.97;1.63;;;;;;;6.35;78.43;101050.84;5964160;29;20046;-86
2022/04/03 11:29:11;;;;;;;2.08;1.48;;;;;;;6.04;75.98;101043.00;5981464;29;20058;-87
2022/04/03 11:32:14;;;;;;;1.98;1.50;;;;;;;6.01;77.71;101042.31;5967901;29;20046;-86
2022/04/03 11:35:32;;;;;;;4.50;1.50;;;;;;;5.84;77.21;101045.72;5970576;29;20046;-86
2022/04/03 11:38:39;;;;;;;2.55;1.35;;;;;;;5.77;79.32;101029.78;5966746;29;20649;-86
2022/04/03 11:41:46;;;;;;;4.85;1.80;;;;;;;6.28;78.11;101021.22;5967157;29;20160;-86
2022/04/03 11:44:57;;;;;;;1.50;1.40;;;;;;;6.61;75.32;101031.47;5968982;29;20074;-86
2022/04/03 11:48:25;;;;;;;1.98;1.27;;;;;;;6.89;73.48;101046.22;5968499;29;20050;-86
2022/04/03 11:51:27;;;;;;;2.70;1.27;;;;;;;6.51;75.28;101030.28;5967563;29;20530;-86
2022/04/03 11:54:29;;;;;;;1.40;1.30;;;;;;;6.36;76.51;101022.50;5968221;29;20051;-86
2022/04/03 11:57:31;;;;;;;2.22;1.60;;;;;;;6.45;76.91;101028.88;5966023;29;20054;-86
2022/04/03 12:00:33;;;;;;;2.08;1.40;;;;;;;6.60;79.19;101022.88;5965715;29;20051;-86
2022/04/03 12:03:41;;;;;;;2.08;1.58;;;;;;;6.97;78.64;101018.28;5967605;29;20079;-86
2022/04/03 12:06:48;;;;;;;2.65;1.30;;;;;;;7.37;75.07;101021.19;5966347;29;20046;-86
2022/04/03 12:09:50;;;;;;;12.35;1.30;;;;;;;7.38;72.57;101017.69;5964709;29;20054;-86
2022/04/03 12:12:54;;;;;;;1.80;1.23;;;;;;;7.55;74.04;101011.53;5969178;29;20046;-86
2022/04/03 12:15:55;;;;;;;5.07;1.40;;;;;;;7.40;72.68;101015.84;5965589;29;20064;-86
2022/04/03 12:19:00;;;;;;;1.55;0.95;;;;;;;7.11;71.28;101002.91;5966096;29;20077;-86
2022/04/03 12:22:10;;;;;;;3.55;1.40;;;;;;;6.72;72.71;101000.00;5971517;29;20042;-86
2022/04/03 12:25:12;;;;;;;5.40;2.13;;;;;;;6.47;74.44;100991.03;5980001;29;20046;-86
2022/04/03 12:28:14;;;;;;;2.88;1.40;;;;;;;6.21;75.55;100997.56;5969683;29;20420;-86
2022/04/03 12:31:15;;;;;;;2.13;1.20;;;;;;;6.01;83.20;101024.31;5971527;29;20148;-86
2022/04/03 12:34:18;;;;;;;2.72;1.77;;;;;;;5.15;100.00;101044.00;5965085;29;20051;-89
2022/04/03 12:37:20;;;;;;;2.22;1.65;;;;;;;4.09;100.00;101033.44;5967431;29;20038;-92
2022/04/03 12:40:23;;;;;;;4.20;1.48;;;;;;;3.47;100.00;101042.91;5969204;29;20043;-88
2022/04/03 12:43:26;;;;;;;2.65;2.20;;;;;;;3.22;100.00;101035.38;5969270;29;20339;-90
2022/04/03 12:46:37;;;;;;;5.82;2.70;;;;;;;3.06;100.00;101034.34;5968134;29;20481;-90
2022/04/03 12:49:41;;;;;;;3.78;2.10;;;;;;;2.95;100.00;101022.78;5985982;29;20188;-88
2022/04/03 12:52:43;;;;;;;2.08;1.42;;;;;;;3.20;100.00;101021.81;5975502;29;20049;-88
2022/04/03 12:55:50;;;;;;;4.70;1.98;;;;;;;3.39;100.00;101015.06;5969378;29;20057;-88
2022/04/03 12:58:52;;;;;;;2.80;1.60;;;;;;;3.44;100.00;101010.59;5973377;29;20055;-88
2022/04/03 13:01:55;;;;;;;3.88;2.00;;;;;;;3.82;100.00;101015.00;5969775;29;20050;-87
2022/04/03 13:04:59;;;;;;;1.92;1.50;;;;;;;3.93;100.00;101002.56;5963443;29;20050;-88
2022/04/03 13:08:13;;;;;;;2.90;2.08;;;;;;;3.84;100.00;100998.66;5971630;29;20054;-87
2022/04/03 13:11:37;;;;;;;4.85;2.30;;;;;;;4.18;100.00;100986.13;5969366;29;20054;-87
2022/04/03 13:14:40;;;;;;;4.18;2.20;;;;;;;4.43;100.00;100984.09;5987997;29;20050;-87
2022/04/03 13:17:44;;;;;;;5.03;2.45;;;;;;;4.69;100.00;100984.59;5969217;29;20039;-87
2022/04/03 13:20:53;;;;;;;5.07;2.47;;;;;;;5.05;100.00;100979.47;5969468;29;20081;-86
2022/04/03 13:23:55;;;;;;;4.03;2.83;;;;;;;5.34;100.00;100980.59;5970087;29;20082;-86
2022/04/03 13:27:17;;;;;;;4.32;2.33;;;;;;;5.56;100.00;100984.63;5970095;29;20050;-86
2022/04/03 13:30:20;;;;;;;4.78;2.30;;;;;;;5.71;100.00;100983.84;5971070;29;20078;-86
2022/04/03 13:33:21;;;;;;;3.85;2.60;;;;;;;5.59;100.00;100984.50;5972016;29;20057;-86
2022/04/03 13:36:24;;;;;;;3.53;2.38;;;;;;;5.63;100.00;100985.16;5969180;29;20047;-86
2022/04/03 13:39:25;;;;;;;3.55;2.50;;;;;;;6.15;100.00;100967.88;5971439;29;20051;-87
2022/04/03 13:42:27;;;;;;;5.53;2.70;;;;;;;6.40;100.00;100975.13;5972985;29;20058;-87
2022/04/03 13:48:53;;;;;;;4.68;1.90;;;;;;;5.66;100.00;100970.41;5972575;29;20184;-87
2022/04/03 13:51:55;;;;;;;3.63;1.83;;;;;;;5.40;100.00;100964.88;5971115;29;20057;-87
2022/04/03 13:54:57;;;;;;;3.60;1.92;;;;;;;5.33;100.00;100962.69;5969968;29;20517;-88
2022/04/03 13:57:59;;;;;;;4.28;1.88;;;;;;;5.18;100.00;100959.16;5971454;29;20062;-87
2022/04/03 14:01:04;;;;;;;3.35;1.85;;;;;;;5.55;100.00;100960.72;5969552;29;20553;-88
2022/04/03 14:04:07;;;;;;;1.80;1.70;;;;;;;5.89;100.00;100952.97;5972325;29;20517;-88
2022/04/03 14:07:09;;;;;;;2.00;1.90;;;;;;;6.21;100.00;100949.59;5969497;29;20046;-88
2022/04/03 14:10:11;;;;;;;2.42;1.60;;;;;;;6.61;100.00;100949.16;5970293;29;20054;-88
2022/04/03 14:13:16;;;;;;;4.82;2.05;;;;;;;6.95;100.00;100948.06;5957509;29;20054;-88
2022/04/03 14:16:18;;;;;;;5.03;1.50;;;;;;;7.38;100.00;100952.47;5970172;29;20078;-89